Somersett, Nevada
Current Conditions -  °F | °C
As of 3:55 PM on Monday 20 Oct 2014 (Local Time) from KRNO Reporting Station
Broken Clouds Broken Clouds  
Wind Chill: 71°   Ceiling: 25000
Heat Index: 71°   Visibility: 10mi
Dew Point: 35°   Wind: 22mph
Humidity: 27%   Direction: 190°S
Pressure: 29.88"   Gusts: NA
Location:  39.5383°N, 119.938°W
Report Text: KRNO 202255Z 19019KT 10SM FEW080 FEW150 BKN250 22/02 A2988 RMK AO2 SLP081 ACSL DSNT N SE NW T02170017
Loading
Personal Weather Stations






























Interactive Weather Map
Tropical Storm Tracking
New forecast layout! Learn more

10-Day Weather Forecast

Advertisements
Track Severe Weather on mobile